Time;durP1;ratioP1;P1;durP2;ratioP2;P2;SDS_P1;SDS_P2;PMS_P1;PMS_P2;Temp;Humidity;BMP_temperature;BMP_pressure;BME280_temperature;BME280_humidity;BME280_pressure;Samples;Min_cycle;Max_cycle;Signal;HPM_P1;HPM_P2
2022/06/30 00:00:20;;;;;;;9.02;5.80;;;;;;;;;;5032126;28;20095;-61
2022/06/30 00:02:47;;;;;;;10.13;6.18;;;;;;;;;;5031994;28;20128;-60
2022/06/30 00:05:15;;;;;;;15.77;8.63;;;;;;;;;;5031966;28;20117;-60
2022/06/30 00:07:43;;;;;;;12.77;6.45;;;;;;;;;;5032015;28;20077;-60
2022/06/30 00:10:11;;;;;;;14.32;6.32;;;;;;;;;;5031895;28;20403;-60
2022/06/30 00:12:40;;;;;;;12.82;6.93;;;;;;;;;;5032024;28;20041;-60
2022/06/30 00:15:07;;;;;;;14.10;6.57;;;;;;;;;;5032055;28;20041;-60
2022/06/30 00:17:35;;;;;;;10.95;6.15;;;;;;;;;;5031890;28;20048;-60
2022/06/30 00:20:03;;;;;;;14.68;6.63;;;;;;;;;;5032227;28;20399;-60
2022/06/30 00:22:30;;;;;;;16.15;7.05;;;;;;;;;;5031746;28;20045;-60
2022/06/30 00:24:58;;;;;;;10.57;6.65;;;;;;;;;;5032962;28;20103;-60
2022/06/30 00:27:25;;;;;;;11.10;6.60;;;;;;;;;;5035417;28;20072;-60
2022/06/30 00:29:53;;;;;;;14.63;8.18;;;;;;;;;;5035310;28;20048;-60
2022/06/30 00:32:20;;;;;;;15.52;6.93;;;;;;;;;;5035371;28;20069;-60
2022/06/30 00:34:48;;;;;;;11.98;7.03;;;;;;;;;;5035131;28;20049;-60
2022/06/30 00:37:15;;;;;;;13.07;6.50;;;;;;;;;;5035274;28;20048;-60
2022/06/30 00:39:43;;;;;;;8.40;6.95;;;;;;;;;;5035131;28;20045;-60
2022/06/30 00:42:10;;;;;;;8.93;6.38;;;;;;;;;;5035018;28;20041;-60
2022/06/30 00:44:38;;;;;;;13.00;7.05;;;;;;;;;;5035188;28;20396;-60
2022/06/30 00:47:06;;;;;;;9.57;6.82;;;;;;;;;;5034929;28;20033;-60
2022/06/30 00:49:34;;;;;;;15.05;7.15;;;;;;;;;;5035278;28;20056;-60
2022/06/30 00:52:02;;;;;;;12.60;7.13;;;;;;;;;;5034795;28;20033;-60
2022/06/30 00:54:30;;;;;;;8.98;6.40;;;;;;;;;;5034849;28;20124;-60
2022/06/30 00:56:58;;;;;;;12.27;6.93;;;;;;;;;;5034791;28;20057;-60
2022/06/30 00:59:27;;;;;;;10.75;7.15;;;;;;;;;;5034969;28;20106;-60
2022/06/30 01:01:55;;;;;;;11.13;7.43;;;;;;;;;;5034796;28;20121;-60
2022/06/30 01:04:23;;;;;;;14.55;6.85;;;;;;;;;;5034389;28;20557;-60
2022/06/30 01:06:51;;;;;;;9.35;6.95;;;;;;;;;;5034772;28;20042;-60
2022/06/30 01:14:53;;;;;;;11.75;7.22;;;;;;;;;;5034509;28;20160;-60
2022/06/30 01:17:20;;;;;;;9.02;6.78;;;;;;;;;;5034606;28;20060;-60
2022/06/30 01:19:54;;;;;;;15.80;9.65;;;;;;;;;;5034431;28;20065;-60
2022/06/30 01:22:22;;;;;;;14.18;7.93;;;;;;;;;;5034428;28;20041;-60
2022/06/30 01:24:49;;;;;;;12.68;7.28;;;;;;;;;;5034320;28;20446;-60
2022/06/30 01:27:17;;;;;;;17.20;7.22;;;;;;;;;;5034345;28;20076;-60
2022/06/30 01:29:45;;;;;;;16.67;7.68;;;;;;;;;;5034334;28;20042;-60
2022/06/30 01:32:12;;;;;;;15.30;7.15;;;;;;;;;;5034243;28;20045;-60
2022/06/30 01:34:40;;;;;;;13.80;7.00;;;;;;;;;;5034365;28;20395;-60
2022/06/30 01:37:07;;;;;;;12.68;7.72;;;;;;;;;;5033084;28;20103;-60
2022/06/30 01:39:35;;;;;;;14.10;9.18;;;;;;;;;;5033970;28;20391;-60
2022/06/30 01:42:03;;;;;;;12.25;7.47;;;;;;;;;;5034068;28;20049;-59
2022/06/30 01:44:30;;;;;;;13.68;10.45;;;;;;;;;;5033910;28;20045;-60
2022/06/30 01:46:58;;;;;;;12.55;7.97;;;;;;;;;;5033962;28;20614;-60
2022/06/30 01:49:25;;;;;;;11.55;8.65;;;;;;;;;;5033803;28;20041;-60
2022/06/30 01:51:53;;;;;;;14.75;7.80;;;;;;;;;;5034261;28;20116;-60
2022/06/30 01:54:21;;;;;;;11.00;7.88;;;;;;;;;;5015774;28;20053;-60
2022/06/30 01:56:49;;;;;;;10.90;7.07;;;;;;;;;;5033702;28;20045;-63
2022/06/30 01:59:17;;;;;;;13.18;6.85;;;;;;;;;;5015966;28;20049;-60
2022/06/30 02:01:44;;;;;;;14.43;7.47;;;;;;;;;;5033536;28;20144;-60
2022/06/30 02:06:58;;;;;;;11.32;6.57;;;;;;;;;;5033454;28;20041;-60
2022/06/30 02:09:25;;;;;;;11.23;7.47;;;;;;;;;;5033659;28;20045;-60
2022/06/30 02:12:44;;;;;;;12.20;7.22;;;;;;;;;;5033419;28;20053;-60
2022/06/30 02:14:40;;;;;;;9.40;7.05;;;;;;;;;;5033301;28;20462;-60
2022/06/30 02:17:07;;;;;;;11.25;7.57;;;;;;;;;;5033336;28;20041;-60
2022/06/30 02:19:35;;;;;;;10.57;6.90;;;;;;;;;;5033288;28;20113;-60
2022/06/30 02:22:02;;;;;;;12.60;7.65;;;;;;;;;;5033105;28;20084;-60
2022/06/30 02:24:30;;;;;;;12.20;7.03;;;;;;;;;;5033224;28;20052;-59
2022/06/30 02:26:58;;;;;;;9.77;7.03;;;;;;;;;;5033188;28;20045;-60
2022/06/30 02:29:25;;;;;;;10.70;7.50;;;;;;;;;;5033143;28;20044;-59
2022/06/30 02:31:53;;;;;;;12.57;7.22;;;;;;;;;;5033129;28;20045;-60
2022/06/30 02:34:21;;;;;;;24.95;16.30;;;;;;;;;;5033022;28;20069;-61
2022/06/30 02:36:49;;;;;;;16.60;12.80;;;;;;;;;;5033235;28;20475;-60
2022/06/30 02:39:17;;;;;;;16.23;14.15;;;;;;;;;;5032915;28;20049;-60
2022/06/30 02:41:44;;;;;;;22.63;17.95;;;;;;;;;;5032544;28;20511;-60
2022/06/30 02:44:12;;;;;;;13.38;7.82;;;;;;;;;;5032898;28;20415;-60
2022/06/30 02:46:40;;;;;;;12.43;7.45;;;;;;;;;;5032825;28;20038;-60
2022/06/30 02:49:07;;;;;;;11.23;8.02;;;;;;;;;;5032608;28;20499;-60
2022/06/30 02:51:35;;;;;;;11.82;8.25;;;;;;;;;;5032762;28;20041;-60
2022/06/30 02:54:02;;;;;;;12.60;8.77;;;;;;;;;;5032543;28;20065;-60
2022/06/30 02:56:30;;;;;;;12.30;7.32;;;;;;;;;;5032999;28;20373;-60
2022/06/30 02:58:57;;;;;;;13.50;8.63;;;;;;;;;;5032699;28;20470;-60
2022/06/30 03:01:25;;;;;;;14.13;10.05;;;;;;;;;;5032924;28;20434;-59
2022/06/30 03:03:52;;;;;;;11.20;8.65;;;;;;;;;;5032409;28;20306;-60
2022/06/30 03:06:20;;;;;;;13.10;8.25;;;;;;;;;;5032491;28;20037;-60
2022/06/30 03:08:47;;;;;;;23.25;8.27;;;;;;;;;;5032629;28;20041;-60
2022/06/30 03:11:16;;;;;;;11.27;8.27;;;;;;;;;;5032438;28;20037;-59
2022/06/30 03:14:03;;;;;;;13.35;8.35;;;;;;;;;;5032551;28;20060;-60
2022/06/30 03:16:31;;;;;;;14.43;8.00;;;;;;;;;;5032616;28;20045;-60
2022/06/30 03:18:59;;;;;;;15.25;11.80;;;;;;;;;;5032393;28;20488;-60
2022/06/30 03:21:26;;;;;;;17.90;8.95;;;;;;;;;;5032490;28;20029;-60
2022/06/30 03:23:54;;;;;;;10.93;7.95;;;;;;;;;;5032274;28;20037;-60
2022/06/30 03:26:21;;;;;;;13.95;10.38;;;;;;;;;;5032312;28;20029;-60
2022/06/30 03:28:49;;;;;;;14.30;9.25;;;;;;;;;;5032387;28;20491;-60
2022/06/30 03:31:16;;;;;;;18.15;8.85;;;;;;;;;;5032447;28;20156;-60
2022/06/30 03:33:44;;;;;;;25.50;13.35;;;;;;;;;;5032544;28;20057;-60
2022/06/30 03:36:12;;;;;;;21.67;14.65;;;;;;;;;;5032298;28;20495;-60
2022/06/30 03:38:39;;;;;;;37.33;21.00;;;;;;;;;;5032332;28;20041;-60
2022/06/30 03:41:07;;;;;;;32.80;19.70;;;;;;;;;;5032083;28;20045;-60
2022/06/30 03:43:34;;;;;;;23.73;15.40;;;;;;;;;;5032015;28;20053;-60
2022/06/30 03:46:02;;;;;;;26.13;14.45;;;;;;;;;;5031660;28;20172;-60
2022/06/30 03:48:29;;;;;;;25.25;15.05;;;;;;;;;;5032036;28;20388;-60
2022/06/30 03:50:57;;;;;;;23.35;16.15;;;;;;;;;;5032242;28;20096;-60
2022/06/30 03:53:24;;;;;;;18.73;13.55;;;;;;;;;;5031983;28;20076;-60
2022/06/30 03:55:52;;;;;;;13.50;10.52;;;;;;;;;;5032259;28;20120;-60
2022/06/30 03:58:19;;;;;;;18.08;12.27;;;;;;;;;;5032127;28;20042;-60
2022/06/30 04:00:47;;;;;;;17.27;10.90;;;;;;;;;;5034329;28;20056;-60
2022/06/30 04:03:14;;;;;;;14.10;9.65;;;;;;;;;;5035764;28;20041;-60
2022/06/30 04:05:42;;;;;;;12.15;8.85;;;;;;;;;;5035903;28;20052;-60
2022/06/30 04:08:10;;;;;;;13.63;10.63;;;;;;;;;;5035682;28;20037;-60
2022/06/30 04:10:38;;;;;;;14.85;11.38;;;;;;;;;;5035742;28;20099;-60
2022/06/30 04:13:05;;;;;;;15.60;12.38;;;;;;;;;;5018204;28;20034;-60
2022/06/30 04:15:33;;;;;;;13.07;9.25;;;;;;;;;;5035679;28;20413;-60
2022/06/30 04:18:00;;;;;;;12.82;8.85;;;;;;;;;;5035638;28;20112;-60
2022/06/30 04:20:28;;;;;;;15.18;10.13;;;;;;;;;;5035546;28;20064;-60
2022/06/30 04:22:55;;;;;;;17.85;10.07;;;;;;;;;;5035601;28;20052;-60
2022/06/30 04:25:23;;;;;;;20.67;13.20;;;;;;;;;;5035312;28;20494;-60
2022/06/30 04:27:52;;;;;;;13.82;10.38;;;;;;;;;;5034118;28;20048;-60
2022/06/30 04:32:37;;;;;;;14.32;9.60;;;;;;;;;;5034398;28;20104;-60
2022/06/30 04:33:08;;;;;;;13.00;8.88;;;;;;;;;;5035075;28;20038;-60
2022/06/30 04:35:36;;;;;;;14.57;8.38;;;;;;;;;;5035242;28;20041;-60
2022/06/30 04:38:04;;;;;;;21.20;9.23;;;;;;;;;;5035411;28;20466;-60
2022/06/30 04:43:18;;;;;;;9.93;8.85;;;;;;;;;;5033664;28;20096;-60
2022/06/30 04:45:45;;;;;;;16.75;9.80;;;;;;;;;;5034331;28;20111;-60
2022/06/30 04:48:13;;;;;;;13.15;10.27;;;;;;;;;;5034523;28;20033;-60
2022/06/30 04:50:40;;;;;;;21.38;9.98;;;;;;;;;;5034851;28;20510;-60
2022/06/30 04:53:08;;;;;;;17.13;9.40;;;;;;;;;;5034814;28;20100;-60
2022/06/30 04:55:36;;;;;;;14.25;8.82;;;;;;;;;;5034662;28;20484;-60
2022/06/30 04:58:03;;;;;;;12.18;8.50;;;;;;;;;;5034854;28;20037;-60
2022/06/30 05:00:31;;;;;;;16.52;8.75;;;;;;;;;;5034844;28;20113;-60
2022/06/30 05:02:59;;;;;;;15.43;10.00;;;;;;;;;;5034318;28;20073;-60
2022/06/30 05:05:27;;;;;;;10.23;8.50;;;;;;;;;;5034681;28;20037;-60
2022/06/30 05:07:54;;;;;;;12.57;8.25;;;;;;;;;;5034762;28;20542;-60
2022/06/30 05:10:22;;;;;;;11.75;8.35;;;;;;;;;;5034590;28;20151;-60
2022/06/30 05:12:49;;;;;;;15.77;9.43;;;;;;;;;;5034915;28;20044;-60
2022/06/30 05:15:17;;;;;;;40.75;31.67;;;;;;;;;;5034617;28;20041;-60
2022/06/30 05:17:44;;;;;;;16.25;10.57;;;;;;;;;;5034570;28;20117;-60
2022/06/30 05:20:12;;;;;;;11.95;8.32;;;;;;;;;;5034541;28;20049;-62
2022/06/30 05:22:40;;;;;;;10.40;7.20;;;;;;;;;;5016854;28;20096;-60
2022/06/30 05:27:53;;;;;;;14.55;8.07;;;;;;;;;;5034307;28;20053;-60
2022/06/30 05:30:21;;;;;;;13.45;8.18;;;;;;;;;;5034432;28;20052;-59
2022/06/30 05:32:48;;;;;;;13.32;7.93;;;;;;;;;;5034302;28;20045;-60
2022/06/30 05:35:16;;;;;;;17.70;10.88;;;;;;;;;;5034254;28;20045;-60
2022/06/30 05:37:48;;;;;;;15.45;8.95;;;;;;;;;;5034492;28;20395;-60
2022/06/30 05:40:16;;;;;;;20.15;9.40;;;;;;;;;;5033947;28;20045;-60
2022/06/30 05:42:43;;;;;;;17.13;8.25;;;;;;;;;;5034139;28;20092;-60
2022/06/30 05:45:11;;;;;;;21.65;11.38;;;;;;;;;;5016276;28;20539;-60
2022/06/30 05:47:45;;;;;;;21.20;13.50;;;;;;;;;;5034089;28;20392;-59
2022/06/30 05:50:13;;;;;;;20.05;11.00;;;;;;;;;;5033966;28;20095;-59
2022/06/30 05:52:42;;;;;;;15.77;8.77;;;;;;;;;;5033913;28;20038;-60
2022/06/30 05:55:09;;;;;;;11.85;8.38;;;;;;;;;;5033826;28;20116;-62
2022/06/30 05:57:57;;;;;;;11.55;7.32;;;;;;;;;;5033783;28;20037;-61
2022/06/30 06:00:25;;;;;;;11.73;7.35;;;;;;;;;;5033755;28;20120;-60
2022/06/30 06:02:53;;;;;;;12.63;9.23;;;;;;;;;;5016352;28;20056;-60
2022/06/30 06:05:21;;;;;;;14.82;7.65;;;;;;;;;;5033534;28;20054;-60
2022/06/30 06:07:49;;;;;;;11.57;7.40;;;;;;;;;;5033723;28;20040;-61
2022/06/30 06:10:16;;;;;;;17.23;9.48;;;;;;;;;;5034084;28;20117;-60
2022/06/30 06:12:44;;;;;;;18.02;7.25;;;;;;;;;;5033754;28;20034;-60
2022/06/30 06:15:12;;;;;;;9.25;6.68;;;;;;;;;;5033516;28;20057;-60
2022/06/30 06:17:44;;;;;;;12.65;6.60;;;;;;;;;;5033430;28;20567;-60
2022/06/30 06:20:12;;;;;;;14.23;7.85;;;;;;;;;;5033289;28;20045;-60
2022/06/30 06:22:40;;;;;;;17.35;9.05;;;;;;;;;;5032809;28;20041;-60
2022/06/30 06:25:08;;;;;;;24.67;17.75;;;;;;;;;;5033003;28;20054;-60
2022/06/30 06:27:36;;;;;;;13.35;7.45;;;;;;;;;;5033195;28;20048;-60
2022/06/30 06:30:07;;;;;;;10.10;8.10;;;;;;;;;;5033137;28;20124;-61
2022/06/30 06:32:35;;;;;;;13.15;6.63;;;;;;;;;;5033180;28;20037;-60
2022/06/30 06:35:05;;;;;;;15.55;7.18;;;;;;;;;;5033031;28;20064;-61
2022/06/30 06:37:38;;;;;;;17.05;5.82;;;;;;;;;;5016305;28;20033;-61
2022/06/30 06:40:06;;;;;;;10.70;6.30;;;;;;;;;;5015530;28;20108;-60
2022/06/30 06:42:33;;;;;;;8.80;6.45;;;;;;;;;;5015600;28;20049;-60
2022/06/30 06:45:10;;;;;;;17.75;7.15;;;;;;;;;;5015139;28;20095;-60
2022/06/30 06:47:38;;;;;;;15.30;6.80;;;;;;;;;;5032784;28;20034;-61
2022/06/30 06:50:07;;;;;;;13.43;5.95;;;;;;;;;;5032844;28;20063;-61
2022/06/30 06:52:34;;;;;;;10.98;5.20;;;;;;;;;;5032788;28;20517;-60
2022/06/30 06:55:03;;;;;;;8.23;4.70;;;;;;;;;;5032816;28;20044;-60
2022/06/30 06:57:37;;;;;;;13.07;8.18;;;;;;;;;;5014999;28;20042;-60
2022/06/30 07:00:09;;;;;;;11.63;4.70;;;;;;;;;;5032709;28;20053;-60
2022/06/30 07:02:37;;;;;;;8.60;5.70;;;;;;;;;;5032863;28;20045;-60
2022/06/30 07:05:04;;;;;;;11.07;4.95;;;;;;;;;;5032603;28;20045;-60
2022/06/30 07:07:34;;;;;;;13.93;6.13;;;;;;;;;;5014819;28;20079;-60
2022/06/30 07:10:02;;;;;;;8.32;5.63;;;;;;;;;;5032486;28;20045;-60
2022/06/30 07:12:29;;;;;;;11.10;5.28;;;;;;;;;;5032508;28;20488;-61
2022/06/30 07:14:57;;;;;;;12.65;6.40;;;;;;;;;;5032361;28;20045;-60
2022/06/30 07:17:24;;;;;;;14.13;5.80;;;;;;;;;;5032400;28;20033;-60
2022/06/30 07:19:52;;;;;;;7.90;5.20;;;;;;;;;;5032433;28;20045;-60
2022/06/30 07:22:19;;;;;;;10.10;5.10;;;;;;;;;;5032331;28;20045;-60
2022/06/30 07:24:47;;;;;;;9.45;5.20;;;;;;;;;;5032231;28;20491;-60
2022/06/30 07:27:14;;;;;;;9.38;6.13;;;;;;;;;;5014462;28;20129;-60
2022/06/30 07:29:42;;;;;;;9.68;5.63;;;;;;;;;;5032067;28;20049;-60
2022/06/30 07:32:11;;;;;;;10.27;5.10;;;;;;;;;;5032236;28;20069;-60
2022/06/30 07:34:38;;;;;;;64.60;46.63;;;;;;;;;;5032445;28;20033;-60
2022/06/30 07:37:06;;;;;;;12.07;6.25;;;;;;;;;;5018782;28;20111;-61
2022/06/30 07:39:33;;;;;;;10.73;5.57;;;;;;;;;;5036010;28;20076;-61
2022/06/30 07:42:01;;;;;;;14.15;6.03;;;;;;;;;;5034997;28;20041;-61
2022/06/30 07:44:28;;;;;;;10.27;6.13;;;;;;;;;;5034845;28;20439;-61
2022/06/30 07:46:56;;;;;;;10.43;5.40;;;;;;;;;;5035120;28;20099;-61
2022/06/30 07:49:23;;;;;;;9.55;5.32;;;;;;;;;;5035064;28;20037;-61
2022/06/30 07:51:52;;;;;;;7.93;5.10;;;;;;;;;;5034978;28;20073;-62
2022/06/30 07:54:20;;;;;;;8.75;4.82;;;;;;;;;;5034785;28;20482;-61
2022/06/30 07:56:48;;;;;;;7.78;4.38;;;;;;;;;;5017395;28;20388;-60
2022/06/30 07:59:16;;;;;;;8.68;4.85;;;;;;;;;;5034680;28;20034;-60
2022/06/30 08:01:43;;;;;;;7.28;5.25;;;;;;;;;;5034507;28;20140;-60
2022/06/30 08:04:11;;;;;;;11.73;5.88;;;;;;;;;;5034570;28;20037;-60
2022/06/30 08:06:39;;;;;;;22.33;18.75;;;;;;;;;;5034385;28;20064;-60
2022/06/30 08:09:07;;;;;;;17.70;15.90;;;;;;;;;;5034530;28;20033;-61
2022/06/30 08:11:34;;;;;;;12.98;11.27;;;;;;;;;;5034346;28;20041;-61
2022/06/30 08:14:02;;;;;;;19.42;5.47;;;;;;;;;;5034258;28;20049;-61
2022/06/30 08:16:29;;;;;;;18.33;10.18;;;;;;;;;;5034328;28;20137;-61
2022/06/30 08:19:03;;;;;;;8.35;5.45;;;;;;;;;;5034336;28;20045;-61
2022/06/30 08:21:30;;;;;;;12.95;4.95;;;;;;;;;;5034044;28;20049;-61
2022/06/30 08:23:58;;;;;;;8.63;7.15;;;;;;;;;;5034223;28;20144;-61
2022/06/30 08:26:25;;;;;;;9.38;4.85;;;;;;;;;;5033869;28;20129;-61
2022/06/30 08:28:53;;;;;;;7.50;4.43;;;;;;;;;;5016678;28;20045;-61
2022/06/30 08:31:20;;;;;;;17.50;12.48;;;;;;;;;;5034263;28;20045;-61
2022/06/30 08:33:50;;;;;;;11.40;7.30;;;;;;;;;;5034163;28;20084;-61
2022/06/30 08:36:18;;;;;;;7.93;6.18;;;;;;;;;;5034230;28;20041;-61
2022/06/30 08:38:46;;;;;;;7.82;4.82;;;;;;;;;;5033942;28;20068;-61
2022/06/30 08:44:01;;;;;;;11.05;5.07;;;;;;;;;;5035338;28;20049;-61
2022/06/30 08:46:28;;;;;;;5.78;4.30;;;;;;;;;;5034553;28;20045;-62
2022/06/30 08:48:56;;;;;;;7.63;4.70;;;;;;;;;;5035215;28;20032;-61
2022/06/30 08:51:26;;;;;;;9.70;5.32;;;;;;;;;;5035032;28;20042;-61
2022/06/30 08:53:56;;;;;;;7.65;4.22;;;;;;;;;;5017391;28;20039;-61
2022/06/30 08:56:24;;;;;;;9.15;7.68;;;;;;;;;;5034973;28;20415;-61
2022/06/30 08:58:54;;;;;;;21.58;5.20;;;;;;;;;;5034955;28;20045;-61
2022/06/30 09:01:22;;;;;;;8.57;4.30;;;;;;;;;;5034793;28;20071;-60
2022/06/30 09:03:50;;;;;;;14.88;7.93;;;;;;;;;;5034752;28;20041;-61
2022/06/30 09:06:18;;;;;;;11.45;4.55;;;;;;;;;;5034669;28;20045;-61
2022/06/30 09:09:01;;;;;;;11.32;5.05;;;;;;;;;;5034707;28;20041;-61
2022/06/30 09:11:51;;;;;;;21.35;16.70;;;;;;;;;;5034549;28;20045;-60
2022/06/30 09:14:42;;;;;;;7.72;4.65;;;;;;;;;;5034444;28;20054;-60
2022/06/30 09:17:11;;;;;;;7.97;4.70;;;;;;;;;;5022425;28;20050;-61
2022/06/30 09:19:57;;;;;;;6.85;4.68;;;;;;;;;;5034384;28;20041;-62
2022/06/30 09:22:26;;;;;;;7.63;5.25;;;;;;;;;;5034607;28;20395;-60
2022/06/30 09:24:55;;;;;;;6.60;4.38;;;;;;;;;;5016626;28;20037;-62
2022/06/30 09:27:24;;;;;;;36.80;8.70;;;;;;;;;;5034537;28;20099;-61
2022/06/30 09:29:56;;;;;;;9.43;5.30;;;;;;;;;;5034361;28;20045;-62
2022/06/30 09:32:51;;;;;;;6.93;4.82;;;;;;;;;;5019271;28;20049;-62
2022/06/30 09:35:19;;;;;;;13.70;6.18;;;;;;;;;;5034293;28;20046;-62
2022/06/30 09:37:56;;;;;;;8.50;4.80;;;;;;;;;;5034157;28;20064;-62
2022/06/30 09:40:34;;;;;;;10.45;4.50;;;;;;;;;;5033915;28;20056;-62
2022/06/30 09:43:03;;;;;;;9.93;4.90;;;;;;;;;;5034208;28;20080;-60
2022/06/30 09:45:36;;;;;;;7.22;5.20;;;;;;;;;;5033976;28;20049;-60
2022/06/30 09:48:03;;;;;;;8.15;4.80;;;;;;;;;;5033960;28;20124;-60
2022/06/30 09:50:31;;;;;;;7.43;4.40;;;;;;;;;;5034155;28;20072;-60
2022/06/30 09:53:10;;;;;;;7.60;5.40;;;;;;;;;;5033901;28;20104;-61
2022/06/30 09:55:39;;;;;;;11.43;5.05;;;;;;;;;;5033812;28;20061;-60
2022/06/30 09:58:07;;;;;;;26.10;8.05;;;;;;;;;;5032945;28;20038;-60
2022/06/30 10:00:45;;;;;;;6.22;4.60;;;;;;;;;;5015901;28;20042;-60
2022/06/30 10:03:12;;;;;;;11.02;6.38;;;;;;;;;;5033770;28;20345;-60
2022/06/30 10:05:44;;;;;;;7.07;4.90;;;;;;;;;;5033285;28;20048;-61
2022/06/30 10:08:13;;;;;;;10.88;5.57;;;;;;;;;;5015867;28;20052;-63
2022/06/30 10:10:41;;;;;;;12.10;5.03;;;;;;;;;;5015618;28;20045;-60
2022/06/30 10:13:18;;;;;;;5.80;4.30;;;;;;;;;;5033409;28;20044;-60
2022/06/30 10:15:53;;;;;;;9.60;4.70;;;;;;;;;;5033453;28;20073;-60
2022/06/30 10:18:21;;;;;;;7.88;4.25;;;;;;;;;;5015697;28;20104;-60
2022/06/30 10:20:49;;;;;;;8.82;4.40;;;;;;;;;;5033286;28;20048;-60
2022/06/30 10:23:21;;;;;;;7.70;4.38;;;;;;;;;;5033486;28;20123;-60
2022/06/30 10:25:49;;;;;;;6.38;4.35;;;;;;;;;;5033394;28;20042;-60
2022/06/30 10:28:21;;;;;;;9.70;4.57;;;;;;;;;;5033247;28;20045;-60
2022/06/30 10:31:07;;;;;;;7.72;4.15;;;;;;;;;;5033022;28;20423;-60
2022/06/30 10:33:53;;;;;;;6.15;4.10;;;;;;;;;;5032943;28;20041;-61
2022/06/30 10:36:27;;;;;;;6.05;3.88;;;;;;;;;;5032768;28;20124;-61
2022/06/30 10:38:58;;;;;;;8.40;4.35;;;;;;;;;;5032834;28;20048;-60
2022/06/30 10:41:26;;;;;;;6.78;4.50;;;;;;;;;;5032679;28;20051;-60
2022/06/30 10:44:05;;;;;;;8.07;4.22;;;;;;;;;;5033068;28;20056;-60
2022/06/30 10:46:34;;;;;;;6.22;4.18;;;;;;;;;;5033071;28;20041;-60
2022/06/30 10:49:11;;;;;;;8.13;4.85;;;;;;;;;;5032778;28;20396;-60
2022/06/30 10:51:39;;;;;;;7.35;4.65;;;;;;;;;;5032772;28;20458;-60
2022/06/30 10:54:07;;;;;;;8.27;4.75;;;;;;;;;;5032776;28;20041;-60
2022/06/30 10:56:51;;;;;;;10.93;5.30;;;;;;;;;;5032713;28;20037;-60
2022/06/30 10:59:41;;;;;;;7.65;3.90;;;;;;;;;;5033057;28;20049;-61
2022/06/30 11:02:18;;;;;;;5.95;3.80;;;;;;;;;;5032674;28;20042;-60
2022/06/30 11:04:47;;;;;;;7.30;3.90;;;;;;;;;;5032671;28;20542;-60
2022/06/30 11:07:23;;;;;;;9.88;5.50;;;;;;;;;;5032608;28;20057;-61
2022/06/30 11:09:51;;;;;;;5.93;4.15;;;;;;;;;;5032634;28;20033;-61
2022/06/30 11:12:23;;;;;;;7.40;4.10;;;;;;;;;;5032417;28;20049;-61
2022/06/30 11:14:52;;;;;;;9.48;3.88;;;;;;;;;;5032365;28;20033;-61
2022/06/30 11:17:21;;;;;;;9.18;4.05;;;;;;;;;;5032383;28;20063;-61
2022/06/30 11:19:49;;;;;;;6.07;3.78;;;;;;;;;;5032294;28;20048;-61
2022/06/30 11:22:20;;;;;;;8.18;4.07;;;;;;;;;;5032258;28;20049;-60
2022/06/30 11:24:49;;;;;;;6.95;3.60;;;;;;;;;;5032412;28;20050;-61
2022/06/30 11:27:24;;;;;;;6.25;3.55;;;;;;;;;;5032270;28;20041;-61
2022/06/30 11:30:02;;;;;;;7.28;3.88;;;;;;;;;;5032451;28;20050;-61
2022/06/30 11:32:30;;;;;;;6.05;4.18;;;;;;;;;;5032476;28;20492;-61
2022/06/30 11:34:58;;;;;;;4.55;3.33;;;;;;;;;;5032321;28;20056;-61
2022/06/30 11:37:27;;;;;;;8.40;4.22;;;;;;;;;;5014929;28;20041;-61
2022/06/30 11:40:02;;;;;;;4.93;3.20;;;;;;;;;;5032189;28;20062;-61
2022/06/30 11:42:30;;;;;;;6.28;3.83;;;;;;;;;;5032212;28;20041;-61
2022/06/30 11:44:58;;;;;;;6.80;3.65;;;;;;;;;;5032254;28;20456;-61
2022/06/30 11:47:28;;;;;;;7.57;3.40;;;;;;;;;;5032351;28;20041;-60
2022/06/30 11:49:57;;;;;;;4.63;3.25;;;;;;;;;;5032232;28;20479;-62
2022/06/30 11:52:25;;;;;;;5.95;3.38;;;;;;;;;;5014475;28;20073;-61
2022/06/30 11:54:54;;;;;;;4.47;3.45;;;;;;;;;;5014806;28;20124;-61
2022/06/30 11:57:23;;;;;;;9.20;3.65;;;;;;;;;;5014330;28;20092;-61
2022/06/30 12:00:13;;;;;;;7.15;4.07;;;;;;;;;;5031949;28;20504;-61
2022/06/30 12:02:41;;;;;;;9.43;4.97;;;;;;;;;;5032704;28;20115;-61
2022/06/30 12:05:10;;;;;;;5.82;3.50;;;;;;;;;;5031972;28;20045;-61
2022/06/30 12:07:38;;;;;;;8.98;4.32;;;;;;;;;;5032111;28;20045;-61
2022/06/30 12:10:06;;;;;;;9.00;4.28;;;;;;;;;;5014324;28;20499;-61
2022/06/30 12:12:35;;;;;;;6.07;3.60;;;;;;;;;;5032032;28;20042;-61
2022/06/30 12:15:05;;;;;;;7.35;3.70;;;;;;;;;;5032218;28;20046;-61
2022/06/30 12:17:33;;;;;;;5.38;3.20;;;;;;;;;;5032356;28;20040;-61
2022/06/30 12:20:02;;;;;;;4.55;3.75;;;;;;;;;;5032046;28;20117;-61
2022/06/30 12:22:30;;;;;;;6.70;3.30;;;;;;;;;;5035226;28;20033;-61
2022/06/30 12:24:58;;;;;;;5.70;3.47;;;;;;;;;;5035719;28;20132;-61
2022/06/30 12:27:30;;;;;;;5.88;4.47;;;;;;;;;;5035732;28;20045;-61
2022/06/30 12:30:01;;;;;;;5.75;3.30;;;;;;;;;;5035708;28;20072;-61
2022/06/30 12:32:29;;;;;;;8.43;3.60;;;;;;;;;;5035511;28;20445;-61
2022/06/30 12:34:58;;;;;;;4.38;3.10;;;;;;;;;;5035263;28;20037;-61
2022/06/30 12:37:31;;;;;;;6.95;3.53;;;;;;;;;;5035298;28;20065;-61
2022/06/30 12:40:00;;;;;;;6.53;3.22;;;;;;;;;;5014214;28;20068;-61
2022/06/30 12:42:39;;;;;;;7.68;3.50;;;;;;;;;;5015472;28;20046;-61
2022/06/30 12:45:06;;;;;;;5.35;3.22;;;;;;;;;;5015405;28;20034;-61
2022/06/30 12:47:35;;;;;;;4.47;3.45;;;;;;;;;;5015384;28;20041;-61
2022/06/30 12:50:22;;;;;;;4.07;3.30;;;;;;;;;;5015573;28;20061;-61
2022/06/30 12:52:50;;;;;;;9.13;3.80;;;;;;;;;;5014097;28;20046;-61
2022/06/30 12:55:17;;;;;;;8.65;3.50;;;;;;;;;;5015338;28;20061;-61
2022/06/30 12:57:48;;;;;;;6.60;3.85;;;;;;;;;;5014175;28;20038;-61
2022/06/30 13:00:15;;;;;;;8.13;4.28;;;;;;;;;;5013956;28;20056;-61
2022/06/30 13:02:43;;;;;;;6.53;3.35;;;;;;;;;;5015180;28;20038;-61
2022/06/30 13:05:12;;;;;;;5.05;3.13;;;;;;;;;;5015076;28;20046;-61
2022/06/30 13:07:40;;;;;;;6.20;3.50;;;;;;;;;;5015066;28;20080;-61
2022/06/30 13:10:08;;;;;;;5.45;3.08;;;;;;;;;;5015027;28;20069;-61
2022/06/30 13:12:35;;;;;;;6.63;3.60;;;;;;;;;;5015004;28;20038;-61
2022/06/30 13:15:03;;;;;;;7.78;5.32;;;;;;;;;;5014903;28;20048;-61
2022/06/30 13:17:30;;;;;;;6.78;3.20;;;;;;;;;;5014707;28;20046;-61
2022/06/30 13:19:58;;;;;;;7.20;2.90;;;;;;;;;;5014835;28;20120;-61
2022/06/30 13:22:25;;;;;;;4.72;3.10;;;;;;;;;;5014748;28;20096;-61
2022/06/30 13:24:53;;;;;;;5.85;3.53;;;;;;;;;;5014712;28;20077;-61
2022/06/30 13:27:20;;;;;;;6.93;3.33;;;;;;;;;;5014608;28;20042;-61
2022/06/30 13:29:48;;;;;;;3.92;3.05;;;;;;;;;;5014552;28;20377;-61
2022/06/30 13:32:15;;;;;;;5.90;3.47;;;;;;;;;;5013663;28;20053;-61
2022/06/30 13:34:43;;;;;;;7.20;4.18;;;;;;;;;;5014556;28;20048;-61
2022/06/30 13:37:10;;;;;;;6.88;3.97;;;;;;;;;;5014571;28;20129;-61
2022/06/30 13:39:38;;;;;;;5.53;3.17;;;;;;;;;;5015853;28;20502;-61
2022/06/30 13:42:06;;;;;;;6.75;4.30;;;;;;;;;;5033892;28;20045;-61
2022/06/30 13:44:33;;;;;;;5.85;2.85;;;;;;;;;;5034041;28;20041;-61
2022/06/30 13:47:01;;;;;;;6.13;3.05;;;;;;;;;;5033768;28;20590;-61
2022/06/30 13:49:28;;;;;;;9.40;3.40;;;;;;;;;;5033843;28;20033;-61
2022/06/30 13:51:56;;;;;;;5.57;3.90;;;;;;;;;;5033628;28;20037;-61
2022/06/30 13:54:23;;;;;;;4.30;3.55;;;;;;;;;;5033400;28;20053;-61
2022/06/30 13:56:51;;;;;;;4.93;3.50;;;;;;;;;;5033431;28;20053;-61
2022/06/30 13:59:19;;;;;;;6.65;3.10;;;;;;;;;;5015368;28;20095;-61
2022/06/30 14:01:47;;;;;;;4.10;3.22;;;;;;;;;;5033250;28;20549;-61
2022/06/30 14:04:16;;;;;;;5.30;3.42;;;;;;;;;;5033280;28;20503;-61
2022/06/30 14:06:46;;;;;;;5.43;3.60;;;;;;;;;;5033188;28;20045;-60
2022/06/30 14:09:13;;;;;;;28.33;5.10;;;;;;;;;;5033377;28;20037;-60
2022/06/30 14:11:41;;;;;;;3.95;2.60;;;;;;;;;;5034157;28;20045;-60
2022/06/30 14:14:08;;;;;;;4.43;2.90;;;;;;;;;;5061164;28;20036;-60
2022/06/30 14:16:36;;;;;;;4.63;3.10;;;;;;;;;;5045776;28;20539;-60
2022/06/30 14:19:03;;;;;;;4.68;3.30;;;;;;;;;;5017291;28;20045;-60
2022/06/30 14:21:32;;;;;;;3.60;2.90;;;;;;;;;;5047411;28;20033;-60
2022/06/30 14:24:00;;;;;;;4.40;2.88;;;;;;;;;;5052466;28;20045;-61
2022/06/30 14:26:27;;;;;;;4.22;3.20;;;;;;;;;;5052334;28;20037;-60
2022/06/30 14:28:55;;;;;;;3.97;3.20;;;;;;;;;;5052729;28;20065;-60
2022/06/30 14:31:22;;;;;;;5.55;4.82;;;;;;;;;;5060051;28;20116;-60
2022/06/30 14:33:50;;;;;;;5.00;3.00;;;;;;;;;;5059333;28;20071;-60
2022/06/30 14:36:18;;;;;;;5.90;3.10;;;;;;;;;;5034980;28;20110;-61
2022/06/30 14:38:46;;;;;;;5.85;3.30;;;;;;;;;;5052600;28;20057;-61
2022/06/30 14:42:43;;;;;;;5.60;3.28;;;;;;;;;;5052284;28;20426;-61
2022/06/30 14:44:01;;;;;;;5.35;2.92;;;;;;;;;;5052110;28;20037;-59
2022/06/30 14:46:28;;;;;;;7.82;3.45;;;;;;;;;;5041632;28;20580;-59
2022/06/30 14:48:56;;;;;;;3.55;2.75;;;;;;;;;;5052421;28;20049;-60
2022/06/30 14:51:37;;;;;;;5.35;3.05;;;;;;;;;;5052497;28;20095;-61
2022/06/30 14:54:04;;;;;;;5.00;2.88;;;;;;;;;;5052443;28;20029;-61
2022/06/30 14:56:32;;;;;;;4.88;2.85;;;;;;;;;;5052319;28;20067;-61
2022/06/30 14:59:00;;;;;;;5.25;3.15;;;;;;;;;;5052486;28;20102;-61
2022/06/30 15:01:29;;;;;;;11.15;4.10;;;;;;;;;;5052140;28;20045;-61